Time;durP1;ratioP1;P1;durP2;ratioP2;P2;SDS_P1;SDS_P2;PMS_P1;PMS_P2;Temp;Humidity;BMP_temperature;BMP_pressure;BME280_temperature;BME280_humidity;BME280_pressure;Samples;Min_cycle;Max_cycle;Signal;HPM_P1;HPM_P2
2022/10/14 00:11:55;;;;;;;12.38;4.32;;;11.90;95.10;;;;;;4842119;29;20034;-96
2022/10/14 00:15:15;;;;;;;9.98;3.35;;;11.90;95.10;;;;;;4820319;29;20050;-96
2022/10/14 00:18:01;;;;;;;11.45;4.35;;;11.90;95.20;;;;;;4811745;29;20046;-96
2022/10/14 00:20:57;;;;;;;14.07;4.00;;;11.90;95.20;;;;;;4812147;29;20050;-96
2022/10/14 00:23:39;;;;;;;14.15;4.93;;;11.90;95.20;;;;;;4808013;29;20049;-96
2022/10/14 00:26:50;;;;;;;13.23;5.30;;;11.90;95.20;;;;;;4860631;29;20058;-96
2022/10/14 00:30:52;;;;;;;;;;;;;;;;;;;;;
2022/10/14 00:33:55;;;;;;;;;;;;;;;;;;;;;
2022/10/14 00:37:44;;;;;;;;;;;;;;;;;;;;;
2022/10/14 00:40:44;;;;;;;7.00;2.60;;;12.00;95.20;;;;;;4856154;29;20049;-96
2022/10/14 00:48:38;;;;;;;8.85;3.30;;;11.90;95.20;;;;;;4840966;29;20036;-96
2022/10/14 00:55:51;;;;;;;14.40;4.90;;;11.90;95.20;;;;;;4802991;29;20125;-96
2022/10/14 00:58:44;;;;;;;14.48;4.50;;;11.90;95.20;;;;;;4815133;29;20081;-96
2022/10/14 01:05:59;;;;;;;7.82;3.25;;;11.90;95.20;;;;;;4827239;29;20026;-96
2022/10/14 01:09:01;;;;;;;;;;;;;;;;;;;;;
2022/10/14 01:12:20;;;;;;;7.10;1.95;;;11.80;95.30;;;;;;4826995;29;20427;-96
2022/10/14 01:19:17;;;;;;;12.63;2.50;;;11.80;95.20;;;;;;4830025;29;20070;-96
2022/10/14 01:22:49;;;;;;;10.40;3.25;;;11.80;95.20;;;;;;4776345;30;20119;-96
2022/10/14 01:26:27;;;;;;;8.95;2.53;;;11.80;95.20;;;;;;4772191;30;20052;-96
2022/10/14 01:29:51;;;;;;;8.18;2.95;;;11.80;95.20;;;;;;4734318;30;20063;-96
2022/10/14 01:37:43;;;;;;;10.60;3.10;;;11.80;95.20;;;;;;4774324;30;20055;-96
2022/10/14 01:40:49;;;;;;;10.95;2.92;;;11.80;95.20;;;;;;4748884;30;20141;-96
2022/10/14 01:48:52;;;;;;;10.75;2.58;;;11.80;95.30;;;;;;4771270;29;20043;-96
2022/10/14 01:52:28;;;;;;;;;;;;;;;;;;;;;
2022/10/14 01:55:48;;;;;;;11.70;3.28;;;11.70;95.30;;;;;;4807073;29;20053;-88
2022/10/14 01:59:01;;;;;;;10.75;3.95;;;11.70;95.30;;;;;;4810588;29;20059;-89
2022/10/14 02:02:51;;;;;;;10.60;3.38;;;11.70;95.30;;;;;;4819505;29;20054;-89
2022/10/14 02:04:57;;;;;;;13.38;3.80;;;11.70;95.30;;;;;;4809095;29;20050;-89
2022/10/14 02:07:52;;;;;;;12.57;3.90;;;11.70;95.40;;;;;;4794884;29;20066;-88
2022/10/14 02:10:29;;;;;;;12.93;3.67;;;11.70;95.40;;;;;;4800465;29;20054;-88
2022/10/14 02:13:31;;;;;;;9.70;3.95;;;11.70;95.30;;;;;;4804166;29;20203;-88
2022/10/14 02:16:40;;;;;;;8.52;3.25;;;11.70;95.30;;;;;;4807973;29;20055;-88
2022/10/14 02:22:53;;;;;;;9.45;3.28;;;11.70;95.30;;;;;;4785890;29;20046;-88
2022/10/14 02:25:41;;;;;;;;;;;;;;;;;;;;;
2022/10/14 02:28:19;;;;;;;8.73;2.78;;;11.60;95.40;;;;;;4822610;29;20047;-89
2022/10/14 02:31:21;;;;;;;13.88;3.60;;;11.70;95.40;;;;;;4807586;29;20191;-88
2022/10/14 02:34:17;;;;;;;10.10;3.30;;;11.70;95.40;;;;;;4859853;29;20063;-88
2022/10/14 02:36:55;;;;;;;10.25;3.70;;;11.70;95.30;;;;;;4830204;29;20064;-88
2022/10/14 02:39:35;;;;;;;9.48;3.88;;;11.70;95.30;;;;;;4830995;29;20045;-88
2022/10/14 02:42:06;;;;;;;11.40;4.45;;;11.60;95.30;;;;;;4823639;29;20101;-88
2022/10/14 02:44:45;;;;;;;8.93;3.33;;;11.70;95.40;;;;;;4829469;29;20144;-88
2022/10/14 02:47:40;;;;;;;9.57;3.45;;;11.70;95.40;;;;;;4844913;29;20050;-96
2022/10/14 02:50:24;;;;;;;11.73;3.60;;;11.70;95.40;;;;;;4839789;29;20136;-96
2022/10/14 02:54:08;;;;;;;;;;;;;;;;;;;;;
2022/10/14 03:01:19;;;;;;;6.88;2.95;;;11.80;95.30;;;;;;4853570;29;20064;-96
2022/10/14 03:12:29;;;;;;;8.25;3.25;;;11.80;95.20;;;;;;4863734;29;20090;-96
2022/10/14 03:15:19;;;;;;;8.30;3.28;;;11.80;95.20;;;;;;4835570;29;20128;-88
2022/10/14 03:17:48;;;;;;;11.82;3.83;;;11.70;95.20;;;;;;4847224;29;20049;-88
2022/10/14 03:20:23;;;;;;;12.23;3.92;;;11.80;95.30;;;;;;4833481;29;20133;-88
2022/10/14 03:22:55;;;;;;;14.65;5.13;;;11.80;95.20;;;;;;4833232;29;20037;-88
2022/10/14 03:25:23;;;;;;;13.88;4.55;;;11.80;95.20;;;;;;4832321;29;20474;-88
2022/10/14 03:28:13;;;;;;;11.05;4.30;;;11.80;95.20;;;;;;4854644;29;20041;-88
2022/10/14 03:30:50;;;;;;;12.43;4.47;;;11.80;95.20;;;;;;4847333;29;20510;-88
2022/10/14 03:33:40;;;;;;;14.38;5.38;;;11.80;95.20;;;;;;4844165;29;20132;-87
2022/10/14 03:36:17;;;;;;;16.48;5.10;;;11.80;95.30;;;;;;4836668;29;20141;-88
2022/10/14 03:38:56;;;;;;;16.75;5.18;;;11.80;95.20;;;;;;4834137;29;20165;-88
2022/10/14 03:41:42;;;;;;;16.85;4.97;;;11.80;95.20;;;;;;4849679;29;20129;-88
2022/10/14 03:44:15;;;;;;;13.85;4.90;;;11.80;95.30;;;;;;4818044;29;20049;-89
2022/10/14 03:47:13;;;;;;;14.00;4.80;;;11.80;95.20;;;;;;4835230;29;20092;-88
2022/10/14 03:49:40;;;;;;;16.25;5.18;;;11.80;95.20;;;;;;4847193;29;20046;-87
2022/10/14 03:52:39;;;;;;;13.25;4.82;;;11.80;95.30;;;;;;4845184;29;20045;-88
2022/10/14 03:55:24;;;;;;;13.05;4.93;;;11.80;95.30;;;;;;4833973;29;20391;-87
2022/10/14 03:58:04;;;;;;;13.85;4.55;;;11.80;95.30;;;;;;4833462;29;20052;-87
2022/10/14 04:00:37;;;;;;;15.23;5.72;;;11.80;95.20;;;;;;4831969;29;20073;-88
2022/10/14 04:03:23;;;;;;;13.00;4.88;;;11.80;95.20;;;;;;4849404;29;20414;-87
2022/10/14 04:05:57;;;;;;;14.30;4.75;;;11.90;95.30;;;;;;4846895;29;20537;-87
2022/10/14 04:08:27;;;;;;;13.25;4.15;;;11.90;95.30;;;;;;4846978;29;20055;-88
2022/10/14 04:11:00;;;;;;;13.20;5.50;;;11.90;95.30;;;;;;4831917;29;20045;-87
2022/10/14 04:13:46;;;;;;;16.80;5.78;;;11.90;95.20;;;;;;4846747;29;20129;-87
2022/10/14 04:16:22;;;;;;;15.90;4.72;;;11.90;95.20;;;;;;4851036;29;20053;-87
2022/10/14 04:19:02;;;;;;;14.02;5.07;;;11.90;95.20;;;;;;4850655;29;20073;-88
2022/10/14 04:21:33;;;;;;;12.23;4.78;;;11.90;95.20;;;;;;4831831;29;20053;-88
2022/10/14 04:24:00;;;;;;;13.70;5.43;;;12.00;95.20;;;;;;4846598;29;20054;-88
2022/10/14 04:26:50;;;;;;;16.17;5.60;;;11.90;95.20;;;;;;4858803;29;20549;-91
2022/10/14 04:29:26;;;;;;;14.50;5.47;;;11.90;95.20;;;;;;4846605;29;20045;-90
2022/10/14 04:32:00;;;;;;;13.00;5.30;;;11.90;95.30;;;;;;4833837;29;20054;-85
2022/10/14 04:34:28;;;;;;;15.15;5.78;;;11.90;95.30;;;;;;4830729;29;20053;-85
2022/10/14 04:36:55;;;;;;;15.55;5.60;;;11.90;95.50;;;;;;4830018;29;20046;-85
2022/10/14 04:39:44;;;;;;;15.80;5.90;;;11.90;95.50;;;;;;4833695;29;20422;-89
2022/10/14 04:42:17;;;;;;;14.00;5.47;;;11.90;95.30;;;;;;4834306;29;20053;-86
2022/10/14 04:44:49;;;;;;;15.93;6.05;;;11.90;95.20;;;;;;4835205;29;20053;-85
2022/10/14 04:47:23;;;;;;;18.02;5.93;;;11.90;95.30;;;;;;4831417;29;20132;-86
2022/10/14 04:49:55;;;;;;;16.88;5.95;;;11.90;95.30;;;;;;4858699;29;20080;-86
2022/10/14 04:52:22;;;;;;;15.02;6.32;;;11.90;95.30;;;;;;4845344;29;20053;-85
2022/10/14 04:54:55;;;;;;;15.73;6.38;;;11.90;95.20;;;;;;4831092;29;20415;-85
2022/10/14 04:57:43;;;;;;;15.25;5.88;;;11.90;95.20;;;;;;4845244;29;20049;-87
2022/10/14 05:00:14;;;;;;;14.95;6.05;;;11.90;95.30;;;;;;4845357;29;20045;-91
2022/10/14 05:02:53;;;;;;;15.07;5.88;;;11.90;95.20;;;;;;4846388;29;20057;-91
2022/10/14 05:05:27;;;;;;;14.07;5.82;;;11.90;95.30;;;;;;4833379;29;20055;-91
2022/10/14 05:07:57;;;;;;;15.35;5.63;;;12.00;95.30;;;;;;4830853;29;20523;-86
2022/10/14 05:10:36;;;;;;;15.50;5.47;;;12.00;95.30;;;;;;4831901;29;20125;-86
2022/10/14 05:13:10;;;;;;;13.77;5.70;;;12.00;95.20;;;;;;4844587;29;20076;-87
2022/10/14 05:15:52;;;;;;;14.13;5.63;;;12.00;95.20;;;;;;4844609;29;20080;-86
2022/10/14 05:18:20;;;;;;;15.05;5.30;;;12.00;95.20;;;;;;4860930;29;20073;-87
2022/10/14 05:21:37;;;;;;;17.63;6.05;;;12.00;95.20;;;;;;4845876;29;20049;-90
2022/10/14 05:28:32;;;;;;;15.32;5.30;;;12.00;95.20;;;;;;4853276;29;20056;-89
2022/10/14 06:41:44;;;;;;;11.93;5.55;;;12.50;94.90;;;;;;664083;23;20310;-95
2022/10/14 06:44:37;;;;;;;9.52;4.90;;;12.60;94.90;;;;;;4802991;29;20119;-96
2022/10/14 06:47:36;;;;;;;15.70;6.60;;;12.60;95.00;;;;;;4793981;29;20058;-96
2022/10/14 06:55:55;;;;;;;10.45;3.72;;;12.70;95.00;;;;;;4828320;29;20449;-95
2022/10/14 06:59:11;;;;;;;;;;;;;;;;;;;;;
2022/10/14 07:02:02;;;;;;;11.00;4.88;;;12.70;94.90;;;;;;4784273;30;20229;-96
2022/10/14 07:09:57;;;;;;;8.10;4.57;;;12.90;94.90;;;;;;4788916;30;20043;-96
2022/10/14 07:22:17;;;;;;;8.43;4.03;;;13.00;94.80;;;;;;4786358;30;20055;-96
2022/10/14 07:24:51;;;;;;;8.82;4.45;;;13.10;94.80;;;;;;4782228;30;20079;-96
2022/10/14 07:27:52;;;;;;;9.32;4.65;;;13.10;94.80;;;;;;4800953;29;20058;-96
2022/10/14 07:35:40;;;;;;;6.75;3.35;;;13.20;94.90;;;;;;4817770;29;20057;-96
2022/10/14 07:47:05;;;;;;;7.38;3.35;;;13.40;94.90;;;;;;4787795;30;20104;-96
2022/10/14 07:55:02;;;;;;;6.88;2.92;;;13.40;94.90;;;;;;4782225;30;20030;-96
2022/10/14 07:57:39;;;;;;;9.07;3.95;;;13.50;94.80;;;;;;4782816;29;20115;-96
2022/10/14 08:04:51;;;;;;;5.78;2.83;;;13.60;94.90;;;;;;4798364;29;20034;-96
2022/10/14 08:08:22;;;;;;;5.88;3.05;;;13.60;94.90;;;;;;4818298;29;20454;-96
2022/10/14 08:11:19;;;;;;;6.13;3.40;;;13.60;94.90;;;;;;4814829;29;20111;-96
2022/10/14 08:14:15;;;;;;;5.00;2.85;;;13.70;94.90;;;;;;4799702;29;20055;-96
2022/10/14 08:16:45;;;;;;;6.20;3.05;;;13.70;94.90;;;;;;4797775;29;20054;-96
2022/10/14 08:19:28;;;;;;;5.45;3.08;;;13.70;94.90;;;;;;4794120;29;20050;-96
2022/10/14 08:22:24;;;;;;;4.82;2.95;;;13.80;94.90;;;;;;4796084;29;20055;-96
2022/10/14 08:28:44;;;;;;;5.65;3.00;;;13.90;95.00;;;;;;4796927;29;20059;-96
2022/10/14 08:31:29;;;;;;;4.68;2.15;;;13.90;95.00;;;;;;4794476;29;20054;-96
2022/10/14 08:43:20;;;;;;;5.13;2.40;;;14.00;95.00;;;;;;4805843;29;20056;-87
2022/10/14 08:46:06;;;;;;;5.03;2.88;;;14.00;94.90;;;;;;4760419;30;20056;-87
2022/10/14 08:48:46;;;;;;;6.05;3.13;;;14.00;95.00;;;;;;4770413;30;20063;-87
2022/10/14 08:51:28;;;;;;;;;;;;;;;;;;;;;
2022/10/14 08:54:46;;;;;;;5.45;2.63;;;14.10;95.00;;;;;;4768805;29;20060;-88
2022/10/14 08:57:36;;;;;;;4.22;2.38;;;14.10;95.00;;;;;;4783810;29;20054;-87
2022/10/14 09:00:10;;;;;;;6.95;4.40;;;14.10;95.10;;;;;;4772070;29;20455;-85
2022/10/14 09:02:44;;;;;;;5.72;3.67;;;14.10;95.00;;;;;;4771427;29;20048;-87
2022/10/14 09:05:30;;;;;;;5.15;3.33;;;14.20;95.00;;;;;;4769031;29;20467;-86
2022/10/14 09:08:01;;;;;;;6.05;3.17;;;14.20;95.00;;;;;;4772243;29;20043;-85
2022/10/14 09:10:36;;;;;;;5.47;3.60;;;14.20;95.10;;;;;;4769573;29;20043;-85
2022/10/14 09:13:16;;;;;;;5.10;3.38;;;14.20;95.10;;;;;;4773305;29;20048;-85
2022/10/14 09:15:50;;;;;;;6.20;4.03;;;14.20;95.00;;;;;;4774765;29;20490;-85
2022/10/14 09:18:29;;;;;;;5.50;3.67;;;14.20;95.10;;;;;;4784186;29;20183;-86
2022/10/14 09:20:57;;;;;;;5.30;3.05;;;14.20;95.10;;;;;;4768838;29;20417;-85
2022/10/14 09:23:27;;;;;;;6.18;3.63;;;14.20;95.20;;;;;;4769120;30;20052;-84
2022/10/14 09:26:04;;;;;;;5.70;3.42;;;14.30;95.20;;;;;;4758832;30;20141;-85
2022/10/14 09:28:39;;;;;;;5.00;3.22;;;14.30;95.20;;;;;;4779203;30;20494;-84
2022/10/14 09:31:10;;;;;;;5.82;3.55;;;14.30;95.20;;;;;;4768689;29;20593;-85
2022/10/14 09:33:38;;;;;;;4.47;2.88;;;14.30;95.20;;;;;;4768778;29;20059;-87
2022/10/14 09:36:19;;;;;;;5.65;3.10;;;14.40;95.20;;;;;;4779167;29;20051;-84
2022/10/14 09:38:51;;;;;;;4.68;2.85;;;14.40;95.20;;;;;;4783686;29;20422;-85
2022/10/14 09:41:29;;;;;;;4.78;2.88;;;14.40;95.20;;;;;;4768891;29;20563;-84
2022/10/14 09:44:20;;;;;;;4.07;2.63;;;14.40;95.20;;;;;;4772490;29;20073;-84
2022/10/14 09:47:10;;;;;;;4.07;2.78;;;14.50;95.20;;;;;;4769868;30;20109;-84
2022/10/14 09:49:46;;;;;;;4.25;3.15;;;14.50;95.20;;;;;;4774665;29;20051;-84
2022/10/14 09:52:24;;;;;;;4.28;2.58;;;14.50;95.20;;;;;;4768575;30;20165;-84
2022/10/14 09:54:59;;;;;;;4.38;2.75;;;14.70;95.20;;;;;;4768438;29;20566;-84
2022/10/14 09:57:27;;;;;;;3.58;2.35;;;14.70;95.10;;;;;;4768581;29;20052;-84
2022/10/14 10:00:02;;;;;;;4.60;2.65;;;14.80;95.10;;;;;;4753332;30;20055;-84
2022/10/14 10:02:43;;;;;;;4.43;2.70;;;14.80;95.10;;;;;;4768590;30;20044;-84
2022/10/14 10:05:23;;;;;;;4.13;2.72;;;14.90;95.00;;;;;;4768452;29;20056;-84
2022/10/14 10:08:01;;;;;;;4.60;2.55;;;15.00;95.00;;;;;;4768375;29;20105;-84
2022/10/14 10:10:34;;;;;;;5.00;2.85;;;15.00;95.00;;;;;;4768579;30;20056;-84
2022/10/14 10:13:02;;;;;;;4.97;2.70;;;15.00;95.00;;;;;;4769323;30;20074;-84
2022/10/14 10:15:30;;;;;;;3.78;2.85;;;15.00;95.00;;;;;;4783151;29;20066;-85
2022/10/14 10:17:58;;;;;;;5.50;3.20;;;15.00;95.00;;;;;;4782947;29;20059;-84
2022/10/14 10:20:30;;;;;;;5.75;2.92;;;15.10;95.00;;;;;;4767900;30;20059;-84
2022/10/14 10:23:23;;;;;;;3.95;2.55;;;15.10;95.00;;;;;;4768509;29;20062;-87
2022/10/14 10:26:40;;;;;;;4.53;2.85;;;15.10;95.00;;;;;;4768353;29;20134;-87
2022/10/14 10:29:31;;;;;;;3.88;2.60;;;15.10;95.00;;;;;;4773925;30;20108;-87
2022/10/14 10:32:28;;;;;;;4.05;2.78;;;15.10;95.00;;;;;;4789235;29;20592;-85
2022/10/14 10:35:09;;;;;;;4.82;3.08;;;15.10;95.10;;;;;;4767243;29;20055;-85
2022/10/14 10:37:45;;;;;;;4.82;3.30;;;15.20;95.10;;;;;;4771981;30;20572;-85
2022/10/14 10:40:15;;;;;;;4.82;2.95;;;15.20;95.10;;;;;;4786753;30;20135;-84
2022/10/14 10:42:47;;;;;;;4.00;2.63;;;15.20;95.10;;;;;;4772230;29;20075;-85
2022/10/14 10:45:56;;;;;;;3.55;2.08;;;15.30;95.00;;;;;;4771864;29;20058;-86
2022/10/14 10:48:45;;;;;;;4.32;2.75;;;15.40;95.00;;;;;;4770663;29;20051;-85
2022/10/14 10:51:39;;;;;;;4.68;2.80;;;15.40;94.90;;;;;;4756109;30;20075;-84
2022/10/14 10:54:36;;;;;;;4.38;2.75;;;15.50;94.90;;;;;;4780805;29;20051;-90
2022/10/14 10:57:29;;;;;;;5.13;3.45;;;15.60;94.90;;;;;;4775263;29;20048;-93
2022/10/14 11:00:07;;;;;;;5.70;3.05;;;15.60;94.80;;;;;;4786674;29;20481;-85
2022/10/14 11:02:57;;;;;;;4.53;3.00;;;15.70;94.80;;;;;;4786969;29;20459;-87
2022/10/14 11:05:38;;;;;;;5.28;3.53;;;15.70;94.70;;;;;;4786460;29;20351;-83
2022/10/14 11:14:32;;;;;;;4.07;2.63;;;15.90;94.70;;;;;;4787086;29;20060;-89
2022/10/14 11:17:27;;;;;;;4.45;2.92;;;15.90;94.70;;;;;;4763680;30;20237;-91
2022/10/14 11:20:36;;;;;;;6.75;3.17;;;15.80;94.70;;;;;;4754379;29;20465;-92
2022/10/14 11:23:39;;;;;;;3.33;2.20;;;15.80;94.70;;;;;;4769837;30;20526;-86
2022/10/14 11:26:28;;;;;;;4.43;3.28;;;15.70;94.80;;;;;;4756255;30;20052;-85
2022/10/14 11:29:11;;;;;;;4.50;2.70;;;15.70;94.90;;;;;;4786151;29;20112;-86
2022/10/14 11:32:30;;;;;;;4.70;3.20;;;15.70;94.90;;;;;;4785137;30;20052;-86
2022/10/14 11:35:17;;;;;;;5.47;2.78;;;15.70;95.00;;;;;;4788145;29;20063;-86
2022/10/14 11:38:03;;;;;;;6.85;3.05;;;15.60;94.90;;;;;;4788104;30;20055;-85
2022/10/14 11:40:42;;;;;;;4.78;3.35;;;15.60;94.90;;;;;;4774905;29;20134;-85
2022/10/14 11:43:38;;;;;;;4.68;3.10;;;15.60;95.00;;;;;;4770534;30;20132;-84
2022/10/14 11:46:10;;;;;;;4.55;2.83;;;15.70;94.90;;;;;;4785214;29;20087;-87
2022/10/14 11:48:54;;;;;;;3.92;2.92;;;15.60;95.00;;;;;;4756302;30;20110;-85
2022/10/14 11:51:30;;;;;;;4.65;2.90;;;15.60;95.00;;;;;;4771149;30;20051;-86
2022/10/14 11:54:16;;;;;;;5.63;3.40;;;15.60;95.00;;;;;;4780219;30;20055;-85
2022/10/14 11:56:45;;;;;;;5.38;4.00;;;15.60;95.00;;;;;;4785528;29;20047;-83
2022/10/14 11:59:18;;;;;;;4.78;3.55;;;15.60;95.10;;;;;;4770504;30;20452;-85
2022/10/14 12:01:51;;;;;;;6.88;3.70;;;15.60;95.10;;;;;;4785682;29;20051;-84
2022/10/14 12:04:32;;;;;;;4.47;3.22;;;15.60;95.10;;;;;;4770413;30;20506;-85
2022/10/14 12:07:08;;;;;;;4.27;2.93;;;15.60;95.10;;;;;;4770523;29;20047;-86
2022/10/14 12:09:41;;;;;;;5.05;3.20;;;15.60;95.20;;;;;;4771132;29;20051;-87
2022/10/14 12:12:13;;;;;;;3.83;2.72;;;15.60;95.20;;;;;;4763856;30;20086;-86
2022/10/14 12:15:00;;;;;;;4.18;2.88;;;15.50;95.20;;;;;;4771696;29;20083;-82
2022/10/14 12:17:37;;;;;;;3.92;2.78;;;15.50;95.20;;;;;;4770203;29;20547;-82
2022/10/14 12:20:26;;;;;;;4.72;2.90;;;15.50;95.30;;;;;;4759108;30;20138;-88
2022/10/14 12:22:56;;;;;;;3.45;2.50;;;15.50;95.30;;;;;;4785324;29;20048;-86
2022/10/14 12:25:27;;;;;;;3.30;2.28;;;15.40;95.30;;;;;;4785045;29;20055;-84
2022/10/14 12:27:54;;;;;;;5.20;2.63;;;15.40;95.30;;;;;;4769954;29;20063;-85
2022/10/14 12:30:36;;;;;;;2.95;2.00;;;15.50;95.40;;;;;;4770474;30;20056;-85
2022/10/14 12:33:07;;;;;;;2.80;1.80;;;15.40;95.30;;;;;;4769956;29;20059;-87
2022/10/14 12:35:46;;;;;;;3.53;2.35;;;15.50;95.40;;;;;;4770079;30;20056;-84
2022/10/14 12:38:17;;;;;;;3.35;1.98;;;15.50;95.40;;;;;;4769991;29;20064;-84
2022/10/14 12:40:47;;;;;;;2.75;1.75;;;15.50;95.40;;;;;;4770889;30;20486;-87
2022/10/14 12:43:16;;;;;;;3.22;2.00;;;15.50;95.40;;;;;;4770212;29;20462;-87
2022/10/14 12:45:59;;;;;;;2.78;1.80;;;15.50;95.40;;;;;;4769923;29;20075;-87
2022/10/14 12:48:31;;;;;;;2.83;1.80;;;15.60;95.40;;;;;;4785117;29;20410;-85
2022/10/14 12:51:08;;;;;;;2.25;1.35;;;15.60;95.40;;;;;;4766086;29;20484;-84
2022/10/14 12:53:38;;;;;;;3.35;1.50;;;15.70;95.40;;;;;;4767764;30;20060;-83
2022/10/14 12:56:06;;;;;;;2.63;1.58;;;15.80;95.30;;;;;;4769438;30;20056;-84
2022/10/14 12:58:33;;;;;;;2.83;1.30;;;15.90;95.20;;;;;;4769784;30;20463;-87
2022/10/14 13:01:20;;;;;;;3.42;1.38;;;15.80;95.20;;;;;;4770903;29;20055;-83
2022/10/14 13:04:00;;;;;;;2.60;0.90;;;15.80;95.30;;;;;;4784273;29;20051;-85
2022/10/14 13:06:36;;;;;;;1.70;1.00;;;15.80;95.40;;;;;;4759053;30;20056;-86
2022/10/14 13:09:14;;;;;;;1.73;1.00;;;15.80;95.40;;;;;;4768996;29;20159;-85
2022/10/14 13:11:43;;;;;;;1.17;0.60;;;15.80;95.40;;;;;;4768960;29;20070;-83
2022/10/14 13:14:31;;;;;;;1.77;0.90;;;15.80;95.40;;;;;;4768994;29;20075;-85
2022/10/14 13:17:02;;;;;;;1.52;0.73;;;15.80;95.40;;;;;;4769005;30;20075;-82
2022/10/14 13:19:32;;;;;;;1.25;0.70;;;15.70;95.50;;;;;;4769214;29;20098;-85
2022/10/14 13:22:04;;;;;;;1.77;0.82;;;15.70;95.50;;;;;;4769231;29;20086;-84
2022/10/14 13:24:37;;;;;;;;;;;15.80;95.60;;;;;;4769686;29;20551;-87
2022/10/14 13:27:28;;;;;;;2.20;0.70;;;15.80;95.60;;;;;;4769767;29;19932;-88
2022/10/14 13:30:36;;;;;;;1.02;0.40;;;15.80;95.50;;;;;;4769417;29;20055;-84
2022/10/14 13:33:23;;;;;;;1.50;0.63;;;15.80;95.50;;;;;;4769280;29;20094;-86
2022/10/14 13:35:50;;;;;;;2.13;0.60;;;15.80;95.50;;;;;;4784251;29;20070;-87
2022/10/14 13:38:20;;;;;;;1.10;0.60;;;15.80;95.60;;;;;;4784227;29;20059;-89
2022/10/14 13:40:50;;;;;;;1.55;0.88;;;15.80;95.60;;;;;;4769082;30;20497;-87
2022/10/14 13:43:36;;;;;;;1.00;0.50;;;15.80;95.60;;;;;;4769228;30;20436;-85
2022/10/14 13:46:11;;;;;;;1.20;0.70;;;15.80;95.60;;;;;;4769028;30;20056;-87
2022/10/14 13:48:47;;;;;;;1.45;0.75;;;15.70;95.60;;;;;;4784324;29;20052;-87
2022/10/14 13:51:14;;;;;;;1.92;1.05;;;15.70;95.70;;;;;;4784028;29;20047;-87
2022/10/14 13:54:14;;;;;;;1.48;0.80;;;15.60;95.70;;;;;;4757711;30;20059;-85
2022/10/14 13:56:42;;;;;;;1.25;0.60;;;15.60;95.80;;;;;;4770003;29;20100;-88
2022/10/14 13:59:22;;;;;;;2.25;0.88;;;15.60;95.90;;;;;;4769311;29;20052;-88
2022/10/14 14:02:17;;;;;;;1.55;0.82;;;15.60;95.90;;;;;;4768813;29;20048;-85
2022/10/14 14:04:52;;;;;;;2.13;0.95;;;15.60;95.90;;;;;;4783297;29;20463;-84
2022/10/14 14:07:26;;;;;;;1.75;1.00;;;15.60;95.90;;;;;;4773139;29;20073;-84
2022/10/14 14:10:18;;;;;;;2.60;1.38;;;15.60;95.90;;;;;;4769825;29;20055;-84
2022/10/14 14:12:46;;;;;;;2.55;1.63;;;15.70;95.90;;;;;;4766115;30;20051;-85
2022/10/14 14:15:25;;;;;;;3.95;1.75;;;15.70;95.90;;;;;;4774031;29;20063;-86
2022/10/14 14:17:53;;;;;;;2.45;1.23;;;15.70;95.90;;;;;;4783336;29;20059;-85
2022/10/14 14:20:23;;;;;;;2.85;1.60;;;15.70;95.90;;;;;;4768479;29;20076;-85
2022/10/14 14:22:52;;;;;;;3.70;2.17;;;15.70;95.90;;;;;;4768728;29;20075;-88
2022/10/14 14:25:28;;;;;;;4.45;1.80;;;15.70;95.90;;;;;;4769066;29;20523;-85
2022/10/14 14:28:17;;;;;;;3.33;1.88;;;15.80;95.90;;;;;;4769135;30;20127;-87
2022/10/14 14:30:53;;;;;;;3.28;2.00;;;15.80;95.90;;;;;;4783385;29;20121;-84
2022/10/14 14:33:37;;;;;;;3.47;2.20;;;15.80;95.90;;;;;;4768087;30;20072;-84
2022/10/14 14:36:11;;;;;;;4.78;3.15;;;15.90;95.90;;;;;;4768186;29;20078;-83
2022/10/14 14:38:57;;;;;;;3.58;2.10;;;15.80;95.90;;;;;;4758211;30;20060;-90
2022/10/14 14:41:32;;;;;;;3.75;2.20;;;15.80;95.90;;;;;;4768165;29;20495;-89
2022/10/14 14:44:15;;;;;;;3.75;2.35;;;15.80;96.00;;;;;;4768507;30;20058;-87
2022/10/14 14:46:59;;;;;;;3.10;1.70;;;15.80;96.00;;;;;;4768276;29;20048;-89
2022/10/14 14:49:57;;;;;;;4.57;2.88;;;15.80;96.00;;;;;;4783889;30;20051;-89
2022/10/14 14:52:54;;;;;;;3.85;2.28;;;15.80;96.00;;;;;;4751627;29;20469;-89
2022/10/14 14:55:53;;;;;;;5.60;2.92;;;15.70;96.00;;;;;;4781876;29;20130;-93
2022/10/14 14:58:31;;;;;;;6.80;4.55;;;15.70;96.00;;;;;;4775321;29;20115;-86
2022/10/14 15:00:59;;;;;;;8.32;5.13;;;15.60;96.10;;;;;;4768116;29;20096;-87
2022/10/14 15:03:34;;;;;;;8.55;5.20;;;15.50;96.10;;;;;;4776566;29;20044;-88
2022/10/14 15:06:25;;;;;;;7.53;4.97;;;15.50;96.20;;;;;;4782562;30;20418;-87
2022/10/14 15:09:07;;;;;;;9.25;5.95;;;15.40;96.30;;;;;;4768126;29;20059;-88
2022/10/14 15:11:44;;;;;;;9.85;5.80;;;15.30;96.40;;;;;;4757124;30;20151;-84
2022/10/14 15:14:32;;;;;;;9.30;5.60;;;15.30;96.50;;;;;;4768586;29;20063;-87
2022/10/14 15:17:04;;;;;;;8.80;5.38;;;15.30;96.60;;;;;;4771069;30;20059;-86
2022/10/14 15:19:41;;;;;;;7.25;4.45;;;15.30;96.50;;;;;;4784837;29;20079;-86
2022/10/14 15:22:19;;;;;;;7.95;4.78;;;15.40;96.50;;;;;;4771536;30;20055;-85
2022/10/14 15:25:30;;;;;;;8.05;4.63;;;15.40;96.40;;;;;;4753950;30;20104;-94
2022/10/14 15:28:01;;;;;;;7.63;4.30;;;15.40;96.40;;;;;;4773612;29;20178;-89
2022/10/14 15:30:33;;;;;;;8.02;4.43;;;15.50;96.40;;;;;;4771632;29;20135;-88
2022/10/14 15:33:16;;;;;;;7.90;4.57;;;15.50;96.40;;;;;;4786598;30;20062;-91
2022/10/14 15:35:52;;;;;;;9.57;4.70;;;15.40;96.30;;;;;;4772671;30;20059;-93
2022/10/14 15:38:19;;;;;;;8.75;4.45;;;15.50;96.30;;;;;;4771805;29;20071;-91
2022/10/14 15:41:01;;;;;;;9.53;5.07;;;15.40;96.40;;;;;;4772141;29;20051;-93
2022/10/14 15:43:30;;;;;;;11.80;6.47;;;15.40;96.40;;;;;;4787288;29;20055;-90
2022/10/14 15:48:56;;;;;;;12.40;6.38;;;15.40;96.40;;;;;;4772837;30;20052;-93
2022/10/14 15:51:27;;;;;;;10.80;6.15;;;15.40;96.50;;;;;;4787890;29;20063;-88
2022/10/14 15:53:57;;;;;;;9.57;5.55;;;15.30;96.40;;;;;;4786906;29;20562;-91
2022/10/14 15:56:24;;;;;;;11.10;6.25;;;15.30;96.50;;;;;;4772058;29;20059;-92
2022/10/14 15:58:51;;;;;;;10.32;5.70;;;15.20;96.50;;;;;;4786331;29;20146;-89
2022/10/14 16:01:20;;;;;;;10.50;5.70;;;15.20;96.50;;;;;;4786047;30;20048;-86
2022/10/14 16:03:51;;;;;;;8.73;4.63;;;15.20;96.60;;;;;;4776961;29;20455;-89
2022/10/14 16:06:21;;;;;;;9.35;4.88;;;15.20;96.60;;;;;;4761953;30;20508;-89
2022/10/14 16:08:51;;;;;;;6.80;4.00;;;15.10;96.60;;;;;;4786315;29;20044;-87
2022/10/14 16:11:25;;;;;;;9.07;4.30;;;15.10;96.70;;;;;;4786409;29;20098;-91
2022/10/14 16:13:54;;;;;;;8.40;4.00;;;15.10;96.70;;;;;;4758079;30;20509;-90
2022/10/14 16:16:30;;;;;;;9.43;4.13;;;15.10;96.70;;;;;;4787369;29;20074;-91
2022/10/14 16:19:01;;;;;;;6.72;3.72;;;15.10;97.00;;;;;;4787686;29;20055;-93
2022/10/14 16:21:40;;;;;;;5.85;3.10;;;15.00;96.70;;;;;;4747260;30;20048;-95
2022/10/14 16:24:29;;;;;;;6.22;3.00;;;14.90;96.70;;;;;;4780074;30;20052;-90
2022/10/14 16:26:59;;;;;;;6.20;3.30;;;14.90;96.80;;;;;;4772279;30;20052;-96
2022/10/14 16:29:43;;;;;;;5.88;2.92;;;14.80;96.90;;;;;;4772111;29;20094;-96
2022/10/14 16:32:19;;;;;;;8.25;4.13;;;14.70;96.90;;;;;;4771590;30;20460;-96
2022/10/14 16:35:13;;;;;;;7.55;3.45;;;14.70;96.90;;;;;;4756481;29;20109;-95
2022/10/14 16:37:53;;;;;;;;;;;;;;;;;;;;;
2022/10/14 16:40:31;;;;;;;8.82;3.25;;;14.60;97.00;;;;;;4772214;29;20409;-94
2022/10/14 16:43:16;;;;;;;7.63;3.45;;;14.60;97.00;;;;;;4786996;29;20138;-94
2022/10/14 16:45:48;;;;;;;7.85;3.63;;;14.60;97.00;;;;;;4782342;29;20051;-90
2022/10/14 16:48:22;;;;;;;10.00;4.47;;;14.60;97.00;;;;;;4786087;29;20138;-93
2022/10/14 16:50:53;;;;;;;7.00;3.58;;;14.60;97.00;;;;;;4785960;29;20531;-90
2022/10/14 16:53:40;;;;;;;7.90;4.20;;;14.50;97.00;;;;;;4786398;29;20063;-91
2022/10/14 16:59:20;;;;;;;6.97;3.35;;;14.40;97.00;;;;;;4779197;29;20060;-88
2022/10/14 17:01:52;;;;;;;8.40;3.83;;;14.30;97.10;;;;;;4784972;29;20044;-88
2022/10/14 17:04:20;;;;;;;7.85;3.92;;;14.30;97.10;;;;;;4772233;29;20059;-89
2022/10/14 17:07:05;;;;;;;;;;;;;;;;;;;;;
2022/10/14 17:09:41;;;;;;;8.10;4.03;;;14.20;97.20;;;;;;4772946;29;20146;-90
2022/10/14 17:12:09;;;;;;;9.60;4.75;;;14.20;97.20;;;;;;4770642;30;20183;-91
2022/10/14 17:14:46;;;;;;;9.52;4.68;;;14.20;97.20;;;;;;4785671;29;20102;-88
2022/10/14 17:17:13;;;;;;;9.65;4.82;;;14.10;97.20;;;;;;4785097;29;20059;-87
2022/10/14 17:19:43;;;;;;;8.63;4.60;;;14.10;97.20;;;;;;4769923;29;20055;-93
2022/10/14 17:22:24;;;;;;;7.78;4.05;;;14.10;97.20;;;;;;4785623;29;20050;-92
2022/10/14 17:24:53;;;;;;;8.43;4.25;;;14.10;97.20;;;;;;4771111;29;20476;-95
2022/10/14 17:27:22;;;;;;;7.53;3.63;;;14.00;97.20;;;;;;4785230;29;20409;-91
2022/10/14 17:29:51;;;;;;;6.38;3.50;;;14.10;97.30;;;;;;4785525;29;20043;-90
2022/10/14 17:32:19;;;;;;;7.78;3.85;;;14.00;97.20;;;;;;4770620;29;20052;-92
2022/10/14 17:34:53;;;;;;;8.48;4.22;;;14.00;97.30;;;;;;4770563;30;20058;-96
2022/10/14 17:37:34;;;;;;;8.98;4.20;;;14.00;97.30;;;;;;4782783;29;20107;-89